sensor_id;sensor_type;location;lat;lon;timestamp;temperature;humidity
3402;DHT22;1714;49.756;8.610;2023-03-01T04:40:26;-2.00;50.60
3402;DHT22;1714;49.756;8.610;2023-03-01T04:51:02;-1.90;49.40
3402;DHT22;1714;49.756;8.610;2023-03-01T05:01:39;-1.80;48.40
3402;DHT22;1714;49.756;8.610;2023-03-01T05:12:18;-1.60;46.90
3402;DHT22;1714;49.756;8.610;2023-03-01T05:22:56;-1.40;43.30
3402;DHT22;1714;49.756;8.610;2023-03-01T05:33:33;-1.50;44.30
3402;DHT22;1714;49.756;8.610;2023-03-01T05:44:11;-1.70;46.90
3402;DHT22;1714;49.756;8.610;2023-03-01T05:54:47;-1.80;48.80
3402;DHT22;1714;49.756;8.610;2023-03-01T06:05:23;-1.90;51.10
3402;DHT22;1714;49.756;8.610;2023-03-01T06:15:59;-1.80;53.90
3402;DHT22;1714;49.756;8.610;2023-03-01T06:26:35;-1.80;51.70
3402;DHT22;1714;49.756;8.610;2023-03-01T06:37:11;-1.50;51.30
3402;DHT22;1714;49.756;8.610;2023-03-01T06:47:46;-1.10;45.40
3402;DHT22;1714;49.756;8.610;2023-03-01T06:58:23;0.40;36.50
3402;DHT22;1714;49.756;8.610;2023-03-01T07:08:58;2.90;20.50
3402;DHT22;1714;49.756;8.610;2023-03-01T07:19:33;5.10;14.00
3402;DHT22;1714;49.756;8.610;2023-03-01T07:30:10;7.60;8.10
3402;DHT22;1714;49.756;8.610;2023-03-01T07:40:45;9.30;4.60
3402;DHT22;1714;49.756;8.610;2023-03-01T07:51:21;9.50;3.50
3402;DHT22;1714;49.756;8.610;2023-03-01T08:01:57;10.20;1.40
3402;DHT22;1714;49.756;8.610;2023-03-01T08:12:33;12.00;1.00
3402;DHT22;1714;49.756;8.610;2023-03-01T08:23:09;13.10;1.00
3402;DHT22;1714;49.756;8.610;2023-03-01T08:33:46;13.50;1.00
3402;DHT22;1714;49.756;8.610;2023-03-01T08:44:26;15.20;1.00
3402;DHT22;1714;49.756;8.610;2023-03-01T08:55:03;14.20;1.00
3402;DHT22;1714;49.756;8.610;2023-03-01T09:05:39;11.50;1.00
3402;DHT22;1714;49.756;8.610;2023-03-01T09:16:17;12.80;1.00
3402;DHT22;1714;49.756;8.610;2023-03-01T09:26:54;12.20;1.00
3402;DHT22;1714;49.756;8.610;2023-03-01T09:37:32;11.50;1.00
3402;DHT22;1714;49.756;8.610;2023-03-01T09:48:15;14.00;1.00
3402;DHT22;1714;49.756;8.610;2023-03-01T09:59:20;13.80;1.00
3402;DHT22;1714;49.756;8.610;2023-03-01T10:09:58;16.60;1.00
3402;DHT22;1714;49.756;8.610;2023-03-01T10:20:46;12.50;1.00
3402;DHT22;1714;49.756;8.610;2023-03-01T10:31:27;11.00;1.00
3402;DHT22;1714;49.756;8.610;2023-03-01T10:42:31;9.70;2.30
3402;DHT22;1714;49.756;8.610;2023-03-01T10:53:34;9.00;3.70
3402;DHT22;1714;49.756;8.610;2023-03-01T11:04:13;8.40;3.30
3402;DHT22;1714;49.756;8.610;2023-03-01T11:14:51;7.60;4.90
3402;DHT22;1714;49.756;8.610;2023-03-01T11:25:33;8.40;5.40
3402;DHT22;1714;49.756;8.610;2023-03-01T11:58:27;7.10;6.20
3402;DHT22;1714;49.756;8.610;2023-03-01T12:09:25;7.70;6.10
3402;DHT22;1714;49.756;8.610;2023-03-01T12:20:25;7.30;6.90
3402;DHT22;1714;49.756;8.610;2023-03-01T12:42:44;7.30;6.30
3402;DHT22;1714;49.756;8.610;2023-03-01T12:53:31;7.40;6.20
3402;DHT22;1714;49.756;8.610;2023-03-01T13:04:24;7.40;5.20
3402;DHT22;1714;49.756;8.610;2023-03-01T13:15:01;7.60;4.00
3402;DHT22;1714;49.756;8.610;2023-03-01T13:37:05;7.90;5.00
3402;DHT22;1714;49.756;8.610;2023-03-01T13:47:36;8.30;4.20
3402;DHT22;1714;49.756;8.610;2023-03-01T13:58:33;8.40;4.20
3402;DHT22;1714;49.756;8.610;2023-03-01T14:09:25;8.40;4.00
3402;DHT22;1714;49.756;8.610;2023-03-01T14:20:14;8.50;3.80
3402;DHT22;1714;49.756;8.610;2023-03-01T14:30:53;8.60;3.30
3402;DHT22;1714;49.756;8.610;2023-03-01T14:41:29;9.10;6.20
3402;DHT22;1714;49.756;8.610;2023-03-01T14:52:18;9.20;2.40
3402;DHT22;1714;49.756;8.610;2023-03-01T15:02:58;8.90;2.80
3402;DHT22;1714;49.756;8.610;2023-03-01T15:13:36;8.90;3.20
3402;DHT22;1714;49.756;8.610;2023-03-01T15:34:55;8.70;4.20
3402;DHT22;1714;49.756;8.610;2023-03-01T15:45:32;8.50;4.90
3402;DHT22;1714;49.756;8.610;2023-03-01T15:56:13;8.40;5.40
3402;DHT22;1714;49.756;8.610;2023-03-01T16:06:50;8.10;6.50
3402;DHT22;1714;49.756;8.610;2023-03-01T16:17:29;8.00;6.70
3402;DHT22;1714;49.756;8.610;2023-03-01T16:28:06;7.80;7.10
3402;DHT22;1714;49.756;8.610;2023-03-01T16:38:44;7.80;7.40
3402;DHT22;1714;49.756;8.610;2023-03-01T16:49:24;7.40;8.30
3402;DHT22;1714;49.756;8.610;2023-03-01T17:00:00;7.20;8.70
3402;DHT22;1714;49.756;8.610;2023-03-01T17:10:35;6.80;9.40
3402;DHT22;1714;49.756;8.610;2023-03-01T17:21:12;6.60;9.90
3402;DHT22;1714;49.756;8.610;2023-03-01T17:31:48;6.30;10.70
3402;DHT22;1714;49.756;8.610;2023-03-01T17:42:24;6.00;11.20
3402;DHT22;1714;49.756;8.610;2023-03-01T17:53:00;5.80;11.90
3402;DHT22;1714;49.756;8.610;2023-03-01T18:03:36;5.60;12.20
3402;DHT22;1714;49.756;8.610;2023-03-01T18:14:11;5.40;12.60
3402;DHT22;1714;49.756;8.610;2023-03-01T18:24:47;5.20;13.00
3402;DHT22;1714;49.756;8.610;2023-03-01T18:35:22;5.10;13.10
3402;DHT22;1714;49.756;8.610;2023-03-01T18:45:59;4.80;13.80
3402;DHT22;1714;49.756;8.610;2023-03-01T18:56:34;4.60;14.10
3402;DHT22;1714;49.756;8.610;2023-03-01T19:07:10;4.50;14.50
3402;DHT22;1714;49.756;8.610;2023-03-01T19:17:46;4.30;14.90
3402;DHT22;1714;49.756;8.610;2023-03-01T19:28:22;4.10;15.50
3402;DHT22;1714;49.756;8.610;2023-03-01T19:38:59;3.80;16.10
3402;DHT22;1714;49.756;8.610;2023-03-01T19:49:35;3.50;17.00
3402;DHT22;1714;49.756;8.610;2023-03-01T20:00:12;3.30;17.90
3402;DHT22;1714;49.756;8.610;2023-03-01T20:10:49;3.10;18.10
3402;DHT22;1714;49.756;8.610;2023-03-01T20:21:25;3.10;18.40
3402;DHT22;1714;49.756;8.610;2023-03-01T20:32:02;2.90;18.60
3402;DHT22;1714;49.756;8.610;2023-03-01T20:42:38;2.80;18.80
3402;DHT22;1714;49.756;8.610;2023-03-01T20:53:14;2.50;19.40
3402;DHT22;1714;49.756;8.610;2023-03-01T21:03:51;2.10;21.60
3402;DHT22;1714;49.756;8.610;2023-03-01T21:14:27;2.00;22.50
3402;DHT22;1714;49.756;8.610;2023-03-01T21:25:03;1.90;22.50
3402;DHT22;1714;49.756;8.610;2023-03-01T21:35:38;2.00;22.40
3402;DHT22;1714;49.756;8.610;2023-03-01T21:46:17;2.20;21.90
3402;DHT22;1714;49.756;8.610;2023-03-01T21:56:53;2.00;21.80
3402;DHT22;1714;49.756;8.610;2023-03-01T22:07:29;2.40;21.40
3402;DHT22;1714;49.756;8.610;2023-03-01T22:18:05;2.60;20.50
3402;DHT22;1714;49.756;8.610;2023-03-01T22:28:40;2.80;20.20
